AAL868 KCLT-KRIC
Flight info
| Callsign | AAL868 |
|---|---|
| Flight time | 0h 47m |
| Altitude | 27000 |
| Route | BARMY5 RDU NEAVL DUCXS5 |
| Aircraft | A320/M-SDE3FGHIRWY/LB1 |
Departure
| Time | 2026-04-21 20:29 |
|---|---|
| Airport | Charlotte Douglas International Airport (KCLT) |
Arrival
| Time | 2026-04-21 21:16 |
|---|---|
| Airport | Richmond International Airport (KRIC) |
| Time | Latitude | Longitude | Altitude | Speed | Heading |
|---|---|---|---|---|---|
| 2026-04-21 20:05 | 35.21860 | -80.94180 | 726 ft | 0 kts | 253° |
| 2026-04-21 20:16 | 35.21861 | -80.94178 | 726 ft | 2 kts | 253° |
| 2026-04-21 20:17 | 35.21864 | -80.94166 | 726 ft | 0 kts | 253° |
| 2026-04-21 20:17 | 35.21869 | -80.94151 | 726 ft | 2 kts | 233° |
| 2026-04-21 20:17 | 35.21880 | -80.94138 | 727 ft | 2 kts | 214° |
| 2026-04-21 20:17 | 35.21892 | -80.94130 | 727 ft | 2 kts | 194° |
| 2026-04-21 20:18 | 35.21903 | -80.94128 | 727 ft | 2 kts | 180° |
| 2026-04-21 20:18 | 35.21916 | -80.94130 | 727 ft | 1 kts | 161° |
| 2026-04-21 20:18 | 35.21921 | -80.94133 | 727 ft | 0 kts | 160° |
| 2026-04-21 20:22 | 35.21844 | -80.94082 | 728 ft | 9 kts | 131° |
| 2026-04-21 20:22 | 35.21809 | -80.94017 | 728 ft | 9 kts | 122° |
| 2026-04-21 20:23 | 35.21771 | -80.93949 | 729 ft | 10 kts | 131° |
| 2026-04-21 20:23 | 35.21719 | -80.93887 | 729 ft | 10 kts | 136° |
| 2026-04-21 20:23 | 35.21665 | -80.93818 | 730 ft | 11 kts | 131° |
| 2026-04-21 20:23 | 35.21612 | -80.93743 | 731 ft | 11 kts | 130° |
| 2026-04-21 20:24 | 35.21556 | -80.93677 | 732 ft | 11 kts | 154° |
| 2026-04-21 20:24 | 35.21476 | -80.93664 | 732 ft | 12 kts | 175° |
| 2026-04-21 20:24 | 35.21381 | -80.93655 | 730 ft | 14 kts | 176° |
| 2026-04-21 20:24 | 35.21270 | -80.93647 | 728 ft | 16 kts | 176° |
| 2026-04-21 20:25 | 35.21149 | -80.93638 | 726 ft | 18 kts | 176° |
| 2026-04-21 20:25 | 35.21016 | -80.93626 | 723 ft | 19 kts | 176° |
| 2026-04-21 20:25 | 35.20878 | -80.93613 | 720 ft | 17 kts | 175° |
| 2026-04-21 20:25 | 35.20766 | -80.93603 | 718 ft | 16 kts | 175° |
| 2026-04-21 20:26 | 35.20649 | -80.93591 | 718 ft | 17 kts | 175° |
| 2026-04-21 20:26 | 35.20529 | -80.93579 | 717 ft | 18 kts | 175° |
| 2026-04-21 20:26 | 35.20397 | -80.93566 | 714 ft | 19 kts | 175° |
| 2026-04-21 20:26 | 35.20284 | -80.93559 | 712 ft | 10 kts | 178° |
| 2026-04-21 20:27 | 35.20229 | -80.93543 | 711 ft | 3 kts | 131° |
| 2026-04-21 20:27 | 35.20228 | -80.93542 | 711 ft | 0 kts | 126° |
| 2026-04-21 20:27 | 35.20221 | -80.93527 | 711 ft | 3 kts | 113° |
| 2026-04-21 20:27 | 35.20215 | -80.93479 | 710 ft | 8 kts | 91° |
| 2026-04-21 20:28 | 35.20260 | -80.93435 | 710 ft | 10 kts | 4° |
| 2026-04-21 20:28 | 35.20361 | -80.93439 | 711 ft | 35 kts | 355° |
| 2026-04-21 20:28 | 35.20872 | -80.93484 | 720 ft | 108 kts | 356° |
| 2026-04-21 20:28 | 35.21829 | -80.93568 | 742 ft | 165 kts | 355° |
| 2026-04-21 20:29 | 35.23083 | -80.93679 | 1026 ft | 190 kts | 356° |
| 2026-04-21 20:29 | 35.24385 | -80.93795 | 1862 ft | 186 kts | 356° |
| 2026-04-21 20:29 | 35.25662 | -80.93784 | 2536 ft | 193 kts | 12° |
| 2026-04-21 20:29 | 35.26991 | -80.93345 | 3119 ft | 207 kts | 16° |
| 2026-04-21 20:30 | 35.28478 | -80.93128 | 3663 ft | 224 kts | 3° |
| 2026-04-21 20:30 | 35.30022 | -80.92683 | 4203 ft | 243 kts | 31° |
| 2026-04-21 20:30 | 35.31166 | -80.91098 | 4796 ft | 264 kts | 66° |
| 2026-04-21 20:30 | 35.31356 | -80.88846 | 5506 ft | 281 kts | 101° |
| 2026-04-21 20:31 | 35.30652 | -80.86588 | 6390 ft | 289 kts | 111° |
| 2026-04-21 20:31 | 35.29909 | -80.84306 | 7245 ft | 294 kts | 105° |
| 2026-04-21 20:31 | 35.29333 | -80.81917 | 8180 ft | 296 kts | 101° |
| 2026-04-21 20:31 | 35.28894 | -80.79456 | 9114 ft | 297 kts | 97° |
| 2026-04-21 20:32 | 35.28542 | -80.76986 | 9984 ft | 300 kts | 95° |
| 2026-04-21 20:32 | 35.28229 | -80.74442 | 10667 ft | 311 kts | 94° |
| 2026-04-21 20:32 | 35.27926 | -80.71745 | 11129 ft | 329 kts | 94° |
| 2026-04-21 20:32 | 35.27619 | -80.68926 | 11545 ft | 347 kts | 94° |
| 2026-04-21 20:33 | 35.27294 | -80.65913 | 11930 ft | 366 kts | 94° |
| 2026-04-21 20:33 | 35.26957 | -80.62794 | 12413 ft | 379 kts | 94° |
| 2026-04-21 20:33 | 35.26608 | -80.59588 | 13143 ft | 384 kts | 95° |
| 2026-04-21 20:33 | 35.26250 | -80.56323 | 13878 ft | 389 kts | 95° |
| 2026-04-21 20:34 | 35.25892 | -80.53044 | 14591 ft | 394 kts | 94° |
| 2026-04-21 20:34 | 35.25544 | -80.49707 | 15286 ft | 398 kts | 91° |
| 2026-04-21 20:34 | 35.25429 | -80.46371 | 15956 ft | 400 kts | 85° |
| 2026-04-21 20:34 | 35.25628 | -80.42981 | 16636 ft | 401 kts | 78° |
| 2026-04-21 20:35 | 35.26047 | -80.39593 | 17310 ft | 404 kts | 76° |
| 2026-04-21 20:35 | 35.26509 | -80.36240 | 17959 ft | 408 kts | 75° |
| 2026-04-21 20:35 | 35.26983 | -80.32806 | 18603 ft | 412 kts | 76° |
| 2026-04-21 20:35 | 35.27457 | -80.29315 | 19205 ft | 417 kts | 76° |
| 2026-04-21 20:36 | 35.27918 | -80.25852 | 19801 ft | 421 kts | 76° |
| 2026-04-21 20:36 | 35.28388 | -80.22285 | 20382 ft | 425 kts | 76° |
| 2026-04-21 20:36 | 35.28850 | -80.18744 | 20962 ft | 429 kts | 76° |
| 2026-04-21 20:36 | 35.29320 | -80.15130 | 21538 ft | 432 kts | 76° |
| 2026-04-21 20:37 | 35.29878 | -80.11499 | 22088 ft | 433 kts | 72° |
| 2026-04-21 20:37 | 35.30617 | -80.07949 | 22626 ft | 434 kts | 68° |
| 2026-04-21 20:37 | 35.31541 | -80.04461 | 23141 ft | 436 kts | 64° |
| 2026-04-21 20:37 | 35.32573 | -80.00937 | 23641 ft | 439 kts | 64° |
| 2026-04-21 20:38 | 35.33609 | -79.97450 | 24124 ft | 443 kts | 64° |
| 2026-04-21 20:38 | 35.34670 | -79.93867 | 24608 ft | 447 kts | 64° |
| 2026-04-21 20:38 | 35.35710 | -79.90324 | 25037 ft | 451 kts | 64° |
| 2026-04-21 20:38 | 35.36780 | -79.86666 | 25449 ft | 455 kts | 64° |
| 2026-04-21 20:39 | 35.37833 | -79.83046 | 25855 ft | 458 kts | 64° |
| 2026-04-21 20:39 | 35.38898 | -79.79382 | 26280 ft | 461 kts | 64° |
| 2026-04-21 20:39 | 35.39980 | -79.75660 | 26674 ft | 465 kts | 64° |
| 2026-04-21 20:39 | 35.41061 | -79.71929 | 27036 ft | 468 kts | 64° |
| 2026-04-21 20:40 | 35.42157 | -79.68150 | 27269 ft | 471 kts | 64° |
| 2026-04-21 20:40 | 35.43246 | -79.64387 | 27278 ft | 471 kts | 64° |
| 2026-04-21 20:40 | 35.44336 | -79.60616 | 27278 ft | 470 kts | 64° |
| 2026-04-21 20:40 | 35.45420 | -79.56858 | 27277 ft | 470 kts | 64° |
| 2026-04-21 20:41 | 35.46516 | -79.53056 | 27281 ft | 470 kts | 64° |
| 2026-04-21 20:41 | 35.47590 | -79.49323 | 27281 ft | 470 kts | 64° |
| 2026-04-21 20:41 | 35.48682 | -79.45525 | 27281 ft | 469 kts | 64° |
| 2026-04-21 20:41 | 35.49753 | -79.41795 | 27283 ft | 469 kts | 64° |
| 2026-04-21 20:42 | 35.50832 | -79.38038 | 27285 ft | 469 kts | 64° |
| 2026-04-21 20:42 | 35.51916 | -79.34256 | 27283 ft | 469 kts | 64° |
| 2026-04-21 20:42 | 35.52996 | -79.30480 | 27282 ft | 469 kts | 64° |
| 2026-04-21 20:42 | 35.54075 | -79.26704 | 27286 ft | 468 kts | 64° |
| 2026-04-21 20:43 | 35.55142 | -79.22961 | 27290 ft | 468 kts | 64° |
| 2026-04-21 20:43 | 35.56212 | -79.19208 | 27292 ft | 468 kts | 64° |
| 2026-04-21 20:43 | 35.57281 | -79.15451 | 27296 ft | 468 kts | 64° |
| 2026-04-21 20:43 | 35.58461 | -79.11742 | 27288 ft | 462 kts | 57° |
| 2026-04-21 20:44 | 35.60084 | -79.08404 | 27293 ft | 452 kts | 47° |
| 2026-04-21 20:44 | 35.62128 | -79.05508 | 27298 ft | 442 kts | 37° |
| 2026-04-21 20:44 | 35.64379 | -79.03002 | 27300 ft | 440 kts | 34° |
| 2026-04-21 20:44 | 35.66709 | -79.00520 | 27299 ft | 440 kts | 34° |
| 2026-04-21 20:45 | 35.69002 | -78.98083 | 27293 ft | 440 kts | 34° |
| 2026-04-21 20:45 | 35.71306 | -78.95621 | 27293 ft | 440 kts | 34° |
| 2026-04-21 20:45 | 35.73626 | -78.93124 | 27288 ft | 440 kts | 34° |
| 2026-04-21 20:45 | 35.75925 | -78.90637 | 27285 ft | 439 kts | 34° |
| 2026-04-21 20:46 | 35.77426 | -78.89011 | 27278 ft | 440 kts | 34° |
| 2026-04-21 20:46 | 35.80491 | -78.85681 | 27276 ft | 440 kts | 34° |
| 2026-04-21 20:46 | 35.82779 | -78.83191 | 27278 ft | 439 kts | 34° |
| 2026-04-21 20:46 | 35.85054 | -78.80713 | 27282 ft | 439 kts | 34° |
| 2026-04-21 20:47 | 35.87386 | -78.78275 | 27285 ft | 437 kts | 32° |
| 2026-04-21 20:47 | 35.89794 | -78.75993 | 27285 ft | 435 kts | 30° |
| 2026-04-21 20:47 | 35.92220 | -78.73771 | 27285 ft | 435 kts | 29° |
| 2026-04-21 20:47 | 35.94644 | -78.71565 | 27285 ft | 434 kts | 29° |
| 2026-04-21 20:48 | 35.97085 | -78.69344 | 27281 ft | 434 kts | 29° |
| 2026-04-21 20:48 | 35.99524 | -78.67123 | 27277 ft | 434 kts | 29° |
| 2026-04-21 20:48 | 36.01953 | -78.64906 | 27276 ft | 434 kts | 29° |
| 2026-04-21 20:48 | 36.04364 | -78.62704 | 27277 ft | 434 kts | 30° |
| 2026-04-21 20:49 | 36.06804 | -78.60472 | 27277 ft | 435 kts | 29° |
| 2026-04-21 20:49 | 36.09222 | -78.58257 | 27271 ft | 434 kts | 30° |
| 2026-04-21 20:49 | 36.11654 | -78.56027 | 27275 ft | 434 kts | 30° |
| 2026-04-21 20:49 | 36.14062 | -78.53818 | 27273 ft | 434 kts | 29° |
| 2026-04-21 20:50 | 36.16463 | -78.51612 | 27206 ft | 433 kts | 30° |
| 2026-04-21 20:50 | 36.18901 | -78.49371 | 26949 ft | 432 kts | 29° |
| 2026-04-21 20:50 | 36.21301 | -78.47166 | 26769 ft | 430 kts | 30° |
| 2026-04-21 20:50 | 36.23685 | -78.44971 | 26773 ft | 430 kts | 30° |
| 2026-04-21 20:51 | 36.26105 | -78.42744 | 26773 ft | 431 kts | 30° |
| 2026-04-21 20:51 | 36.28507 | -78.40528 | 26774 ft | 431 kts | 30° |
| 2026-04-21 20:51 | 36.30896 | -78.38324 | 26777 ft | 431 kts | 30° |
| 2026-04-21 20:51 | 36.33320 | -78.36087 | 26778 ft | 431 kts | 30° |
| 2026-04-21 20:52 | 36.35708 | -78.33880 | 26692 ft | 428 kts | 30° |
| 2026-04-21 20:52 | 36.38082 | -78.31682 | 26272 ft | 425 kts | 30° |
| 2026-04-21 20:52 | 36.40429 | -78.29511 | 26095 ft | 426 kts | 30° |
| 2026-04-21 20:52 | 36.42799 | -78.27316 | 25675 ft | 424 kts | 30° |
| 2026-04-21 20:53 | 36.45150 | -78.25140 | 24696 ft | 429 kts | 30° |
| 2026-04-21 20:53 | 36.47554 | -78.22920 | 23699 ft | 433 kts | 31° |
| 2026-04-21 20:53 | 36.49953 | -78.20695 | 23003 ft | 430 kts | 31° |
| 2026-04-21 20:53 | 36.52334 | -78.18478 | 22387 ft | 424 kts | 31° |
| 2026-04-21 20:54 | 36.54690 | -78.16283 | 21740 ft | 420 kts | 31° |
| 2026-04-21 20:54 | 36.57006 | -78.14127 | 21106 ft | 416 kts | 31° |
| 2026-04-21 20:54 | 36.59280 | -78.12008 | 20482 ft | 412 kts | 31° |
| 2026-04-21 20:54 | 36.61556 | -78.09886 | 19838 ft | 408 kts | 31° |
| 2026-04-21 20:55 | 36.63833 | -78.07762 | 19195 ft | 404 kts | 31° |
| 2026-04-21 20:55 | 36.66061 | -78.05685 | 18548 ft | 400 kts | 32° |
| 2026-04-21 20:55 | 36.68277 | -78.03615 | 17881 ft | 397 kts | 32° |
| 2026-04-21 20:55 | 36.70475 | -78.01562 | 17243 ft | 393 kts | 32° |
| 2026-04-21 20:56 | 36.72645 | -77.99529 | 16651 ft | 388 kts | 32° |
| 2026-04-21 20:56 | 36.74758 | -77.97551 | 16054 ft | 384 kts | 32° |
| 2026-04-21 20:56 | 36.76880 | -77.95562 | 15456 ft | 379 kts | 32° |
| 2026-04-21 20:56 | 36.78970 | -77.93603 | 14867 ft | 374 kts | 32° |
| 2026-04-21 20:57 | 36.81058 | -77.91644 | 14262 ft | 370 kts | 32° |
| 2026-04-21 20:57 | 36.83100 | -77.89729 | 13651 ft | 367 kts | 32° |
| 2026-04-21 20:57 | 36.85119 | -77.87832 | 13046 ft | 363 kts | 32° |
| 2026-04-21 20:57 | 36.87130 | -77.85943 | 12419 ft | 361 kts | 32° |
| 2026-04-21 20:58 | 36.89114 | -77.84077 | 11926 ft | 354 kts | 32° |
| 2026-04-21 20:58 | 36.91043 | -77.82259 | 11577 ft | 345 kts | 32° |
| 2026-04-21 20:58 | 36.92908 | -77.80499 | 11381 ft | 331 kts | 32° |
| 2026-04-21 20:58 | 36.94714 | -77.78792 | 11226 ft | 317 kts | 31° |
| 2026-04-21 20:59 | 36.96440 | -77.77161 | 11075 ft | 304 kts | 31° |
| 2026-04-21 20:59 | 36.98106 | -77.75666 | 10942 ft | 290 kts | 27° |
| 2026-04-21 20:59 | 36.99779 | -77.74372 | 10949 ft | 275 kts | 25° |
| 2026-04-21 20:59 | 37.01424 | -77.73147 | 10958 ft | 275 kts | 24° |
| 2026-04-21 21:00 | 37.03074 | -77.71925 | 10957 ft | 275 kts | 24° |
| 2026-04-21 21:00 | 37.04704 | -77.70712 | 10959 ft | 275 kts | 24° |
| 2026-04-21 21:00 | 37.06349 | -77.69484 | 10960 ft | 275 kts | 24° |
| 2026-04-21 21:00 | 37.07995 | -77.68253 | 10961 ft | 275 kts | 24° |
| 2026-04-21 21:01 | 37.09642 | -77.67019 | 10963 ft | 275 kts | 24° |
| 2026-04-21 21:01 | 37.11284 | -77.65790 | 10751 ft | 277 kts | 24° |
| 2026-04-21 21:01 | 37.13006 | -77.64803 | 10333 ft | 270 kts | 10° |
| 2026-04-21 21:01 | 37.14820 | -77.64471 | 9960 ft | 262 kts | 356° |
| 2026-04-21 21:02 | 37.16639 | -77.64499 | 9618 ft | 259 kts | 354° |
| 2026-04-21 21:02 | 37.18424 | -77.64558 | 9275 ft | 257 kts | 354° |
| 2026-04-21 21:02 | 37.20211 | -77.64619 | 8919 ft | 255 kts | 354° |
| 2026-04-21 21:02 | 37.21991 | -77.64680 | 8570 ft | 254 kts | 354° |
| 2026-04-21 21:03 | 37.23737 | -77.64737 | 8219 ft | 254 kts | 354° |
| 2026-04-21 21:03 | 37.25502 | -77.64791 | 7874 ft | 253 kts | 355° |
| 2026-04-21 21:03 | 37.27282 | -77.64847 | 7521 ft | 252 kts | 355° |
| 2026-04-21 21:03 | 37.29007 | -77.64899 | 7174 ft | 251 kts | 355° |
| 2026-04-21 21:04 | 37.30744 | -77.64951 | 6837 ft | 249 kts | 355° |
| 2026-04-21 21:04 | 37.32492 | -77.65004 | 6501 ft | 248 kts | 355° |
| 2026-04-21 21:04 | 37.34192 | -77.65057 | 6176 ft | 246 kts | 355° |
| 2026-04-21 21:04 | 37.35915 | -77.65109 | 5851 ft | 245 kts | 355° |
| 2026-04-21 21:05 | 37.37606 | -77.65160 | 5536 ft | 243 kts | 355° |
| 2026-04-21 21:05 | 37.39281 | -77.65212 | 5226 ft | 242 kts | 355° |
| 2026-04-21 21:05 | 37.40976 | -77.65264 | 4916 ft | 240 kts | 355° |
| 2026-04-21 21:05 | 37.42645 | -77.65314 | 4611 ft | 238 kts | 356° |
| 2026-04-21 21:06 | 37.44279 | -77.65363 | 4314 ft | 236 kts | 356° |
| 2026-04-21 21:06 | 37.45921 | -77.65413 | 4036 ft | 233 kts | 356° |
| 2026-04-21 21:06 | 37.47498 | -77.65241 | 3945 ft | 224 kts | 16° |
| 2026-04-21 21:06 | 37.48815 | -77.64313 | 3935 ft | 212 kts | 41° |
| 2026-04-21 21:07 | 37.49668 | -77.62876 | 4011 ft | 197 kts | 63° |
| 2026-04-21 21:07 | 37.50029 | -77.61307 | 3957 ft | 180 kts | 81° |
| 2026-04-21 21:07 | 37.50222 | -77.59826 | 3922 ft | 164 kts | 75° |
| 2026-04-21 21:07 | 37.50639 | -77.58492 | 3935 ft | 163 kts | 58° |
| 2026-04-21 21:08 | 37.51257 | -77.57317 | 3949 ft | 162 kts | 52° |
| 2026-04-21 21:08 | 37.51945 | -77.56151 | 3974 ft | 173 kts | 51° |
| 2026-04-21 21:08 | 37.52710 | -77.54895 | 3984 ft | 185 kts | 51° |
| 2026-04-21 21:08 | 37.53498 | -77.53604 | 3970 ft | 187 kts | 50° |
| 2026-04-21 21:09 | 37.54300 | -77.52286 | 3960 ft | 188 kts | 51° |
| 2026-04-21 21:09 | 37.55094 | -77.50980 | 3957 ft | 188 kts | 51° |
| 2026-04-21 21:09 | 37.55881 | -77.49682 | 3954 ft | 188 kts | 51° |
| 2026-04-21 21:09 | 37.56679 | -77.48364 | 3954 ft | 188 kts | 51° |
| 2026-04-21 21:10 | 37.57467 | -77.47063 | 3954 ft | 187 kts | 51° |
| 2026-04-21 21:10 | 37.58257 | -77.45760 | 3954 ft | 187 kts | 51° |
| 2026-04-21 21:10 | 37.59048 | -77.44451 | 3931 ft | 187 kts | 51° |
| 2026-04-21 21:10 | 37.59833 | -77.43159 | 3684 ft | 184 kts | 51° |
| 2026-04-21 21:11 | 37.60606 | -77.41886 | 3452 ft | 179 kts | 51° |
| 2026-04-21 21:11 | 37.61335 | -77.40685 | 3265 ft | 170 kts | 51° |
| 2026-04-21 21:11 | 37.62035 | -77.39517 | 3069 ft | 162 kts | 56° |
| 2026-04-21 21:11 | 37.62545 | -77.38280 | 2992 ft | 160 kts | 70° |
| 2026-04-21 21:12 | 37.62807 | -77.36914 | 2906 ft | 160 kts | 85° |
| 2026-04-21 21:12 | 37.62796 | -77.35528 | 2756 ft | 157 kts | 99° |
| 2026-04-21 21:12 | 37.62534 | -77.34245 | 2481 ft | 144 kts | 115° |
| 2026-04-21 21:12 | 37.62083 | -77.33157 | 2293 ft | 139 kts | 128° |
| 2026-04-21 21:13 | 37.61478 | -77.32240 | 2122 ft | 136 kts | 140° |
| 2026-04-21 21:13 | 37.60736 | -77.31496 | 1944 ft | 134 kts | 151° |
| 2026-04-21 21:13 | 37.59907 | -77.30970 | 1769 ft | 133 kts | 163° |
| 2026-04-21 21:13 | 37.59028 | -77.30669 | 1596 ft | 131 kts | 174° |
| 2026-04-21 21:14 | 37.58127 | -77.30592 | 1425 ft | 130 kts | 185° |
| 2026-04-21 21:14 | 37.57228 | -77.30740 | 1254 ft | 128 kts | 194° |
| 2026-04-21 21:14 | 37.56361 | -77.31006 | 1077 ft | 128 kts | 197° |
| 2026-04-21 21:14 | 37.55493 | -77.31280 | 905 ft | 128 kts | 195° |
| 2026-04-21 21:15 | 37.54628 | -77.31539 | 739 ft | 127 kts | 195° |
| 2026-04-21 21:15 | 37.53770 | -77.31794 | 567 ft | 127 kts | 195° |
| 2026-04-21 21:15 | 37.52905 | -77.32053 | 392 ft | 127 kts | 195° |
| 2026-04-21 21:15 | 37.52045 | -77.32314 | 257 ft | 127 kts | 195° |
| 2026-04-21 21:16 | 37.51191 | -77.32570 | 167 ft | 118 kts | 194° |
| 2026-04-21 21:16 | 37.50539 | -77.32777 | 163 ft | 72 kts | 194° |
| 2026-04-21 21:16 | 37.50186 | -77.32883 | 163 ft | 39 kts | 192° |
| 2026-04-21 21:16 | 37.50030 | -77.32936 | 163 ft | 17 kts | 211° |
| 2026-04-21 21:17 | 37.50025 | -77.33045 | 163 ft | 15 kts | 333° |
| 2026-04-21 21:17 | 37.50130 | -77.33036 | 163 ft | 15 kts | 13° |
| 2026-04-21 21:17 | 37.50240 | -77.33005 | 163 ft | 16 kts | 13° |
| 2026-04-21 21:17 | 37.50355 | -77.32971 | 163 ft | 17 kts | 12° |
| 2026-04-21 21:18 | 37.50473 | -77.32971 | 163 ft | 17 kts | 334° |
| 2026-04-21 21:18 | 37.50589 | -77.32991 | 163 ft | 17 kts | 13° |
| 2026-04-21 21:18 | 37.50709 | -77.32954 | 164 ft | 17 kts | 13° |
| 2026-04-21 21:18 | 37.50806 | -77.32926 | 166 ft | 10 kts | 13° |
| 2026-04-21 21:19 | 37.50879 | -77.32906 | 166 ft | 11 kts | 11° |
| 2026-04-21 21:19 | 37.50925 | -77.32926 | 166 ft | 6 kts | 288° |
| 2026-04-21 21:19 | 37.50934 | -77.32967 | 166 ft | 3 kts | 283° |
| 2026-04-21 21:19 | 37.50934 | -77.32970 | 166 ft | 0 kts | 283° |